sensor_id;sensor_type;location;lat;lon;timestamp;P1;durP1;ratioP1;P2;durP2;ratioP2
41480;SDS011;27217;51.220;5.308;2022-11-20T00:01:43;20.80;;;10.48;;
41480;SDS011;27217;51.220;5.308;2022-11-20T00:04:10;24.38;;;11.15;;
41480;SDS011;27217;51.220;5.308;2022-11-20T00:06:36;24.55;;;10.82;;
41480;SDS011;27217;51.220;5.308;2022-11-20T00:09:02;24.52;;;12.07;;
41480;SDS011;27217;51.220;5.308;2022-11-20T00:11:30;28.75;;;10.85;;
41480;SDS011;27217;51.220;5.308;2022-11-20T00:13:58;24.20;;;10.82;;
41480;SDS011;27217;51.220;5.308;2022-11-20T00:16:26;18.35;;;10.40;;
41480;SDS011;27217;51.220;5.308;2022-11-20T00:18:53;21.45;;;10.35;;
41480;SDS011;27217;51.220;5.308;2022-11-20T00:21:20;23.92;;;10.88;;
41480;SDS011;27217;51.220;5.308;2022-11-20T00:23:48;19.73;;;10.30;;
41480;SDS011;27217;51.220;5.308;2022-11-20T00:26:16;22.17;;;11.35;;
41480;SDS011;27217;51.220;5.308;2022-11-20T00:28:44;20.83;;;11.18;;
41480;SDS011;27217;51.220;5.308;2022-11-20T00:31:15;21.88;;;10.90;;
41480;SDS011;27217;51.220;5.308;2022-11-20T00:33:42;23.65;;;11.32;;
41480;SDS011;27217;51.220;5.308;2022-11-20T00:36:09;22.52;;;11.82;;
41480;SDS011;27217;51.220;5.308;2022-11-20T00:38:37;27.00;;;12.20;;
41480;SDS011;27217;51.220;5.308;2022-11-20T00:41:04;22.45;;;10.77;;
41480;SDS011;27217;51.220;5.308;2022-11-20T00:43:32;26.55;;;11.20;;
41480;SDS011;27217;51.220;5.308;2022-11-20T00:45:59;23.92;;;11.48;;
41480;SDS011;27217;51.220;5.308;2022-11-20T00:48:30;22.13;;;10.27;;
41480;SDS011;27217;51.220;5.308;2022-11-20T00:50:56;25.15;;;12.02;;
41480;SDS011;27217;51.220;5.308;2022-11-20T00:53:22;24.35;;;10.98;;
41480;SDS011;27217;51.220;5.308;2022-11-20T00:56:02;20.17;;;10.38;;
41480;SDS011;27217;51.220;5.308;2022-11-20T00:58:30;24.05;;;11.50;;
41480;SDS011;27217;51.220;5.308;2022-11-20T01:01:03;20.52;;;10.80;;
41480;SDS011;27217;51.220;5.308;2022-11-20T01:03:35;31.05;;;12.15;;
41480;SDS011;27217;51.220;5.308;2022-11-20T01:06:06;24.42;;;11.70;;
41480;SDS011;27217;51.220;5.308;2022-11-20T01:08:34;24.25;;;10.90;;
41480;SDS011;27217;51.220;5.308;2022-11-20T01:11:07;25.42;;;12.63;;
41480;SDS011;27217;51.220;5.308;2022-11-20T01:13:35;21.67;;;11.57;;
41480;SDS011;27217;51.220;5.308;2022-11-20T01:18:35;23.67;;;12.25;;
41480;SDS011;27217;51.220;5.308;2022-11-20T01:21:06;19.30;;;10.88;;
41480;SDS011;27217;51.220;5.308;2022-11-20T01:23:34;22.63;;;11.00;;
41480;SDS011;27217;51.220;5.308;2022-11-20T01:26:02;23.15;;;11.10;;
41480;SDS011;27217;51.220;5.308;2022-11-20T01:28:29;21.45;;;12.77;;
41480;SDS011;27217;51.220;5.308;2022-11-20T01:30:55;25.13;;;11.50;;
41480;SDS011;27217;51.220;5.308;2022-11-20T01:33:21;20.35;;;10.93;;
41480;SDS011;27217;51.220;5.308;2022-11-20T01:35:48;19.80;;;10.90;;
41480;SDS011;27217;51.220;5.308;2022-11-20T01:38:15;19.02;;;11.27;;
41480;SDS011;27217;51.220;5.308;2022-11-20T01:40:41;20.38;;;11.30;;
41480;SDS011;27217;51.220;5.308;2022-11-20T01:43:25;23.63;;;11.68;;
41480;SDS011;27217;51.220;5.308;2022-11-20T01:48:54;22.45;;;11.13;;
41480;SDS011;27217;51.220;5.308;2022-11-20T01:54:19;15.32;;;8.52;;
41480;SDS011;27217;51.220;5.308;2022-11-20T01:56:51;22.75;;;10.88;;
41480;SDS011;27217;51.220;5.308;2022-11-20T01:59:20;21.08;;;11.25;;
41480;SDS011;27217;51.220;5.308;2022-11-20T02:01:49;23.92;;;12.23;;
41480;SDS011;27217;51.220;5.308;2022-11-20T02:04:15;23.25;;;11.75;;
41480;SDS011;27217;51.220;5.308;2022-11-20T02:06:48;24.67;;;12.38;;
41480;SDS011;27217;51.220;5.308;2022-11-20T02:09:18;27.30;;;11.98;;
41480;SDS011;27217;51.220;5.308;2022-11-20T02:11:44;25.17;;;12.85;;
41480;SDS011;27217;51.220;5.308;2022-11-20T02:14:10;25.63;;;12.80;;
41480;SDS011;27217;51.220;5.308;2022-11-20T02:16:40;28.70;;;13.50;;
41480;SDS011;27217;51.220;5.308;2022-11-20T02:19:20;28.48;;;12.98;;
41480;SDS011;27217;51.220;5.308;2022-11-20T02:22:00;21.75;;;11.68;;
41480;SDS011;27217;51.220;5.308;2022-11-20T02:24:51;30.85;;;12.82;;
41480;SDS011;27217;51.220;5.308;2022-11-20T02:27:17;23.13;;;12.25;;
41480;SDS011;27217;51.220;5.308;2022-11-20T02:32:25;30.00;;;12.55;;
41480;SDS011;27217;51.220;5.308;2022-11-20T02:34:56;23.13;;;11.50;;
41480;SDS011;27217;51.220;5.308;2022-11-20T02:37:23;23.45;;;12.60;;
41480;SDS011;27217;51.220;5.308;2022-11-20T02:39:56;20.75;;;11.57;;
41480;SDS011;27217;51.220;5.308;2022-11-20T02:42:21;27.40;;;12.00;;
41480;SDS011;27217;51.220;5.308;2022-11-20T02:44:47;23.17;;;12.45;;
41480;SDS011;27217;51.220;5.308;2022-11-20T02:47:13;27.98;;;11.05;;
41480;SDS011;27217;51.220;5.308;2022-11-20T02:49:38;22.90;;;11.57;;
41480;SDS011;27217;51.220;5.308;2022-11-20T02:52:04;22.70;;;11.25;;
41480;SDS011;27217;51.220;5.308;2022-11-20T02:54:30;22.25;;;10.50;;
41480;SDS011;27217;51.220;5.308;2022-11-20T02:56:55;19.08;;;10.23;;
41480;SDS011;27217;51.220;5.308;2022-11-20T02:59:22;23.55;;;11.68;;
41480;SDS011;27217;51.220;5.308;2022-11-20T03:01:48;20.83;;;11.63;;
41480;SDS011;27217;51.220;5.308;2022-11-20T03:04:13;24.27;;;11.10;;
41480;SDS011;27217;51.220;5.308;2022-11-20T03:06:39;22.02;;;11.82;;
41480;SDS011;27217;51.220;5.308;2022-11-20T03:09:05;26.85;;;12.05;;
41480;SDS011;27217;51.220;5.308;2022-11-20T03:11:30;21.35;;;11.68;;
41480;SDS011;27217;51.220;5.308;2022-11-20T03:13:56;20.60;;;11.43;;
41480;SDS011;27217;51.220;5.308;2022-11-20T03:16:22;22.58;;;11.82;;
41480;SDS011;27217;51.220;5.308;2022-11-20T03:18:48;20.98;;;11.85;;
41480;SDS011;27217;51.220;5.308;2022-11-20T03:21:17;19.60;;;10.90;;
41480;SDS011;27217;51.220;5.308;2022-11-20T03:23:43;24.90;;;12.05;;
41480;SDS011;27217;51.220;5.308;2022-11-20T03:26:19;22.83;;;12.02;;
41480;SDS011;27217;51.220;5.308;2022-11-20T03:28:47;21.88;;;11.45;;
41480;SDS011;27217;51.220;5.308;2022-11-20T03:31:21;26.63;;;11.40;;
41480;SDS011;27217;51.220;5.308;2022-11-20T03:33:49;23.08;;;11.73;;
41480;SDS011;27217;51.220;5.308;2022-11-20T03:36:15;24.02;;;12.07;;
41480;SDS011;27217;51.220;5.308;2022-11-20T03:38:42;25.58;;;12.98;;
41480;SDS011;27217;51.220;5.308;2022-11-20T03:41:09;24.17;;;11.55;;
41480;SDS011;27217;51.220;5.308;2022-11-20T03:43:37;24.75;;;12.15;;
41480;SDS011;27217;51.220;5.308;2022-11-20T03:46:03;26.65;;;12.65;;
41480;SDS011;27217;51.220;5.308;2022-11-20T03:48:30;26.25;;;13.63;;
41480;SDS011;27217;51.220;5.308;2022-11-20T03:51:12;24.27;;;12.45;;
41480;SDS011;27217;51.220;5.308;2022-11-20T03:53:41;24.15;;;12.80;;
41480;SDS011;27217;51.220;5.308;2022-11-20T03:56:08;23.90;;;12.52;;
41480;SDS011;27217;51.220;5.308;2022-11-20T03:58:35;22.10;;;11.63;;
41480;SDS011;27217;51.220;5.308;2022-11-20T04:01:20;23.30;;;12.05;;
41480;SDS011;27217;51.220;5.308;2022-11-20T04:03:48;26.17;;;12.82;;
41480;SDS011;27217;51.220;5.308;2022-11-20T04:06:18;23.10;;;11.90;;
41480;SDS011;27217;51.220;5.308;2022-11-20T04:08:46;21.95;;;11.48;;
41480;SDS011;27217;51.220;5.308;2022-11-20T04:11:13;23.10;;;12.55;;
41480;SDS011;27217;51.220;5.308;2022-11-20T04:13:41;26.23;;;11.98;;
41480;SDS011;27217;51.220;5.308;2022-11-20T04:16:11;25.77;;;13.13;;
41480;SDS011;27217;51.220;5.308;2022-11-20T04:18:36;30.38;;;12.75;;
41480;SDS011;27217;51.220;5.308;2022-11-20T04:21:03;24.83;;;12.50;;
41480;SDS011;27217;51.220;5.308;2022-11-20T04:23:29;25.30;;;13.05;;
41480;SDS011;27217;51.220;5.308;2022-11-20T04:26:00;24.02;;;12.30;;
41480;SDS011;27217;51.220;5.308;2022-11-20T04:28:33;21.73;;;11.82;;
41480;SDS011;27217;51.220;5.308;2022-11-20T04:33:29;24.80;;;12.68;;
41480;SDS011;27217;51.220;5.308;2022-11-20T04:35:55;20.88;;;11.35;;
41480;SDS011;27217;51.220;5.308;2022-11-20T04:38:45;23.80;;;11.48;;
41480;SDS011;27217;51.220;5.308;2022-11-20T04:41:17;22.15;;;12.40;;
41480;SDS011;27217;51.220;5.308;2022-11-20T04:43:48;24.10;;;11.43;;
41480;SDS011;27217;51.220;5.308;2022-11-20T04:46:16;23.67;;;12.02;;
41480;SDS011;27217;51.220;5.308;2022-11-20T04:48:42;20.65;;;11.52;;
41480;SDS011;27217;51.220;5.308;2022-11-20T04:51:08;24.67;;;12.63;;
41480;SDS011;27217;51.220;5.308;2022-11-20T04:53:34;24.85;;;12.20;;
41480;SDS011;27217;51.220;5.308;2022-11-20T04:56:04;26.13;;;12.63;;
41480;SDS011;27217;51.220;5.308;2022-11-20T04:58:31;28.65;;;13.02;;
41480;SDS011;27217;51.220;5.308;2022-11-20T05:01:09;29.48;;;13.73;;
41480;SDS011;27217;51.220;5.308;2022-11-20T05:03:41;23.60;;;12.88;;
41480;SDS011;27217;51.220;5.308;2022-11-20T05:06:08;23.75;;;12.73;;
41480;SDS011;27217;51.220;5.308;2022-11-20T05:08:35;24.67;;;12.00;;
41480;SDS011;27217;51.220;5.308;2022-11-20T05:11:05;24.63;;;12.35;;
41480;SDS011;27217;51.220;5.308;2022-11-20T05:16:05;25.17;;;13.50;;
41480;SDS011;27217;51.220;5.308;2022-11-20T05:18:39;26.30;;;13.90;;
41480;SDS011;27217;51.220;5.308;2022-11-20T05:21:06;25.25;;;13.07;;
41480;SDS011;27217;51.220;5.308;2022-11-20T05:23:32;25.90;;;12.63;;
41480;SDS011;27217;51.220;5.308;2022-11-20T05:25:59;27.08;;;13.98;;
41480;SDS011;27217;51.220;5.308;2022-11-20T05:28:26;28.42;;;13.75;;
41480;SDS011;27217;51.220;5.308;2022-11-20T05:30:54;26.75;;;14.63;;
41480;SDS011;27217;51.220;5.308;2022-11-20T05:33:19;27.67;;;12.93;;
41480;SDS011;27217;51.220;5.308;2022-11-20T05:35:46;28.45;;;13.25;;
41480;SDS011;27217;51.220;5.308;2022-11-20T05:38:13;24.95;;;13.02;;
41480;SDS011;27217;51.220;5.308;2022-11-20T05:40:39;27.58;;;13.35;;
41480;SDS011;27217;51.220;5.308;2022-11-20T05:43:05;26.67;;;13.23;;
41480;SDS011;27217;51.220;5.308;2022-11-20T05:45:30;27.40;;;13.15;;
41480;SDS011;27217;51.220;5.308;2022-11-20T05:47:59;30.25;;;13.55;;
41480;SDS011;27217;51.220;5.308;2022-11-20T05:50:26;28.55;;;13.40;;
41480;SDS011;27217;51.220;5.308;2022-11-20T05:52:55;29.70;;;13.43;;
41480;SDS011;27217;51.220;5.308;2022-11-20T05:55:24;28.48;;;13.73;;
41480;SDS011;27217;51.220;5.308;2022-11-20T05:57:51;27.13;;;13.30;;
41480;SDS011;27217;51.220;5.308;2022-11-20T06:00:20;28.50;;;13.52;;
41480;SDS011;27217;51.220;5.308;2022-11-20T06:02:46;28.58;;;14.82;;
41480;SDS011;27217;51.220;5.308;2022-11-20T06:05:12;27.08;;;14.05;;
41480;SDS011;27217;51.220;5.308;2022-11-20T06:07:37;29.95;;;15.52;;
41480;SDS011;27217;51.220;5.308;2022-11-20T06:10:04;29.65;;;15.00;;
41480;SDS011;27217;51.220;5.308;2022-11-20T06:12:31;31.73;;;14.82;;
41480;SDS011;27217;51.220;5.308;2022-11-20T06:14:58;29.63;;;14.40;;
41480;SDS011;27217;51.220;5.308;2022-11-20T06:17:24;33.13;;;15.05;;
41480;SDS011;27217;51.220;5.308;2022-11-20T06:19:50;32.40;;;14.73;;
41480;SDS011;27217;51.220;5.308;2022-11-20T06:22:16;43.15;;;16.55;;
41480;SDS011;27217;51.220;5.308;2022-11-20T06:24:42;33.97;;;16.38;;
41480;SDS011;27217;51.220;5.308;2022-11-20T06:27:07;34.33;;;15.70;;
41480;SDS011;27217;51.220;5.308;2022-11-20T06:29:33;33.42;;;15.55;;
41480;SDS011;27217;51.220;5.308;2022-11-20T06:31:59;34.30;;;16.38;;
41480;SDS011;27217;51.220;5.308;2022-11-20T06:34:26;38.65;;;16.70;;
41480;SDS011;27217;51.220;5.308;2022-11-20T06:36:51;32.42;;;16.17;;
41480;SDS011;27217;51.220;5.308;2022-11-20T06:39:18;37.72;;;16.65;;
41480;SDS011;27217;51.220;5.308;2022-11-20T06:41:43;42.00;;;16.60;;
41480;SDS011;27217;51.220;5.308;2022-11-20T06:44:09;37.38;;;17.55;;
41480;SDS011;27217;51.220;5.308;2022-11-20T06:46:35;38.05;;;17.13;;
41480;SDS011;27217;51.220;5.308;2022-11-20T06:49:01;42.60;;;18.05;;
41480;SDS011;27217;51.220;5.308;2022-11-20T06:51:26;51.78;;;20.38;;
41480;SDS011;27217;51.220;5.308;2022-11-20T06:53:53;54.35;;;18.48;;
41480;SDS011;27217;51.220;5.308;2022-11-20T06:56:19;57.08;;;21.42;;
41480;SDS011;27217;51.220;5.308;2022-11-20T06:58:45;52.22;;;19.30;;
41480;SDS011;27217;51.220;5.308;2022-11-20T07:01:12;68.20;;;21.70;;
41480;SDS011;27217;51.220;5.308;2022-11-20T07:03:39;46.70;;;18.15;;
41480;SDS011;27217;51.220;5.308;2022-11-20T07:06:05;52.65;;;18.13;;
41480;SDS011;27217;51.220;5.308;2022-11-20T07:08:32;55.75;;;20.10;;
41480;SDS011;27217;51.220;5.308;2022-11-20T07:10:59;52.08;;;19.25;;
41480;SDS011;27217;51.220;5.308;2022-11-20T07:13:26;58.17;;;20.15;;
41480;SDS011;27217;51.220;5.308;2022-11-20T07:15:53;47.70;;;19.92;;
41480;SDS011;27217;51.220;5.308;2022-11-20T07:18:19;50.90;;;19.35;;
41480;SDS011;27217;51.220;5.308;2022-11-20T07:20:44;47.42;;;17.52;;
41480;SDS011;27217;51.220;5.308;2022-11-20T07:23:10;52.75;;;21.05;;
41480;SDS011;27217;51.220;5.308;2022-11-20T07:25:35;55.33;;;20.33;;
41480;SDS011;27217;51.220;5.308;2022-11-20T07:28:02;54.22;;;19.77;;
41480;SDS011;27217;51.220;5.308;2022-11-20T07:30:29;53.38;;;19.70;;
41480;SDS011;27217;51.220;5.308;2022-11-20T07:32:55;54.97;;;19.75;;
41480;SDS011;27217;51.220;5.308;2022-11-20T07:35:25;52.08;;;20.92;;
41480;SDS011;27217;51.220;5.308;2022-11-20T07:37:50;47.90;;;19.65;;
41480;SDS011;27217;51.220;5.308;2022-11-20T07:40:17;48.70;;;19.45;;
41480;SDS011;27217;51.220;5.308;2022-11-20T07:42:50;48.42;;;19.80;;
41480;SDS011;27217;51.220;5.308;2022-11-20T07:45:18;53.00;;;19.90;;
41480;SDS011;27217;51.220;5.308;2022-11-20T07:47:45;55.10;;;19.80;;
41480;SDS011;27217;51.220;5.308;2022-11-20T07:50:11;58.42;;;19.60;;
41480;SDS011;27217;51.220;5.308;2022-11-20T07:52:38;54.30;;;20.48;;
41480;SDS011;27217;51.220;5.308;2022-11-20T07:55:04;46.55;;;19.65;;
41480;SDS011;27217;51.220;5.308;2022-11-20T07:57:30;52.38;;;21.08;;
41480;SDS011;27217;51.220;5.308;2022-11-20T07:59:56;52.80;;;22.40;;
41480;SDS011;27217;51.220;5.308;2022-11-20T08:02:22;50.83;;;21.02;;
41480;SDS011;27217;51.220;5.308;2022-11-20T08:04:48;49.35;;;21.25;;
41480;SDS011;27217;51.220;5.308;2022-11-20T08:07:13;53.45;;;22.27;;
41480;SDS011;27217;51.220;5.308;2022-11-20T08:09:40;66.43;;;25.42;;
41480;SDS011;27217;51.220;5.308;2022-11-20T08:12:06;63.92;;;24.23;;
41480;SDS011;27217;51.220;5.308;2022-11-20T08:14:50;55.45;;;22.75;;
41480;SDS011;27217;51.220;5.308;2022-11-20T08:17:16;54.13;;;23.13;;
41480;SDS011;27217;51.220;5.308;2022-11-20T08:19:41;53.42;;;23.25;;
41480;SDS011;27217;51.220;5.308;2022-11-20T08:22:07;55.75;;;22.67;;
41480;SDS011;27217;51.220;5.308;2022-11-20T08:24:33;49.72;;;20.92;;
41480;SDS011;27217;51.220;5.308;2022-11-20T08:26:59;53.38;;;22.02;;
41480;SDS011;27217;51.220;5.308;2022-11-20T08:29:31;54.40;;;20.77;;
41480;SDS011;27217;51.220;5.308;2022-11-20T08:31:57;50.58;;;22.33;;
41480;SDS011;27217;51.220;5.308;2022-11-20T08:34:22;47.67;;;20.23;;
41480;SDS011;27217;51.220;5.308;2022-11-20T08:36:48;48.15;;;20.85;;
41480;SDS011;27217;51.220;5.308;2022-11-20T08:39:14;52.35;;;21.20;;
41480;SDS011;27217;51.220;5.308;2022-11-20T08:41:39;51.60;;;21.55;;
41480;SDS011;27217;51.220;5.308;2022-11-20T08:44:06;52.97;;;21.42;;
41480;SDS011;27217;51.220;5.308;2022-11-20T08:46:34;50.40;;;22.23;;
41480;SDS011;27217;51.220;5.308;2022-11-20T08:49:06;48.05;;;19.98;;
41480;SDS011;27217;51.220;5.308;2022-11-20T08:51:33;51.70;;;21.63;;
41480;SDS011;27217;51.220;5.308;2022-11-20T08:54:00;48.65;;;20.73;;
41480;SDS011;27217;51.220;5.308;2022-11-20T08:56:25;50.22;;;21.10;;
41480;SDS011;27217;51.220;5.308;2022-11-20T08:58:52;49.95;;;20.70;;
41480;SDS011;27217;51.220;5.308;2022-11-20T09:01:18;46.03;;;20.38;;
41480;SDS011;27217;51.220;5.308;2022-11-20T09:03:45;47.50;;;19.83;;
41480;SDS011;27217;51.220;5.308;2022-11-20T09:06:11;52.55;;;22.08;;
41480;SDS011;27217;51.220;5.308;2022-11-20T09:08:38;50.70;;;21.98;;
41480;SDS011;27217;51.220;5.308;2022-11-20T09:11:04;56.65;;;21.35;;
41480;SDS011;27217;51.220;5.308;2022-11-20T09:13:30;48.85;;;20.88;;
41480;SDS011;27217;51.220;5.308;2022-11-20T09:15:59;50.97;;;20.48;;
41480;SDS011;27217;51.220;5.308;2022-11-20T09:18:26;53.40;;;21.52;;
41480;SDS011;27217;51.220;5.308;2022-11-20T09:20:59;54.22;;;21.40;;
41480;SDS011;27217;51.220;5.308;2022-11-20T09:23:27;53.45;;;21.20;;
41480;SDS011;27217;51.220;5.308;2022-11-20T09:25:56;46.35;;;20.67;;
41480;SDS011;27217;51.220;5.308;2022-11-20T09:28:24;49.33;;;19.58;;
41480;SDS011;27217;51.220;5.308;2022-11-20T09:30:51;46.42;;;22.13;;
41480;SDS011;27217;51.220;5.308;2022-11-20T09:33:17;52.78;;;21.92;;
41480;SDS011;27217;51.220;5.308;2022-11-20T09:35:43;48.53;;;21.02;;
41480;SDS011;27217;51.220;5.308;2022-11-20T09:38:09;49.75;;;21.08;;
41480;SDS011;27217;51.220;5.308;2022-11-20T09:40:37;52.47;;;22.75;;
41480;SDS011;27217;51.220;5.308;2022-11-20T09:46:01;49.53;;;21.02;;
41480;SDS011;27217;51.220;5.308;2022-11-20T09:51:21;50.00;;;20.92;;
41480;SDS011;27217;51.220;5.308;2022-11-20T09:54:19;52.28;;;21.95;;
41480;SDS011;27217;51.220;5.308;2022-11-20T09:56:52;51.03;;;21.20;;
41480;SDS011;27217;51.220;5.308;2022-11-20T09:59:35;52.63;;;21.73;;
41480;SDS011;27217;51.220;5.308;2022-11-20T10:02:02;53.03;;;21.83;;
41480;SDS011;27217;51.220;5.308;2022-11-20T10:04:51;53.25;;;23.20;;
41480;SDS011;27217;51.220;5.308;2022-11-20T10:07:23;57.88;;;22.90;;
41480;SDS011;27217;51.220;5.308;2022-11-20T10:10:15;53.45;;;22.17;;
41480;SDS011;27217;51.220;5.308;2022-11-20T10:20:39;55.60;;;22.33;;
41480;SDS011;27217;51.220;5.308;2022-11-20T10:23:16;57.83;;;22.92;;
41480;SDS011;27217;51.220;5.308;2022-11-20T10:25:59;52.80;;;23.63;;
41480;SDS011;27217;51.220;5.308;2022-11-20T10:28:39;53.22;;;21.50;;
41480;SDS011;27217;51.220;5.308;2022-11-20T10:31:34;59.05;;;24.13;;
41480;SDS011;27217;51.220;5.308;2022-11-20T10:34:12;52.40;;;24.17;;
41480;SDS011;27217;51.220;5.308;2022-11-20T10:36:59;67.90;;;24.70;;
41480;SDS011;27217;51.220;5.308;2022-11-20T10:42:46;57.40;;;22.23;;
41480;SDS011;27217;51.220;5.308;2022-11-20T10:45:19;50.40;;;21.48;;
41480;SDS011;27217;51.220;5.308;2022-11-20T10:47:57;52.08;;;21.52;;
41480;SDS011;27217;51.220;5.308;2022-11-20T10:50:30;52.60;;;22.00;;
41480;SDS011;27217;51.220;5.308;2022-11-20T10:55:50;59.65;;;23.63;;
41480;SDS011;27217;51.220;5.308;2022-11-20T10:58:39;60.20;;;22.98;;
41480;SDS011;27217;51.220;5.308;2022-11-20T11:01:17;53.60;;;22.48;;
41480;SDS011;27217;51.220;5.308;2022-11-20T11:03:48;56.72;;;23.65;;
41480;SDS011;27217;51.220;5.308;2022-11-20T11:09:12;60.70;;;24.30;;
41480;SDS011;27217;51.220;5.308;2022-11-20T11:11:42;56.47;;;23.05;;
41480;SDS011;27217;51.220;5.308;2022-11-20T11:14:12;67.22;;;24.83;;
41480;SDS011;27217;51.220;5.308;2022-11-20T11:16:49;71.68;;;24.52;;
41480;SDS011;27217;51.220;5.308;2022-11-20T11:19:17;61.67;;;26.52;;
41480;SDS011;27217;51.220;5.308;2022-11-20T11:22:01;63.58;;;25.08;;
41480;SDS011;27217;51.220;5.308;2022-11-20T11:24:35;69.05;;;24.58;;
41480;SDS011;27217;51.220;5.308;2022-11-20T11:27:02;75.50;;;23.95;;
41480;SDS011;27217;51.220;5.308;2022-11-20T11:29:36;63.90;;;22.70;;
41480;SDS011;27217;51.220;5.308;2022-11-20T11:32:05;63.65;;;24.23;;
41480;SDS011;27217;51.220;5.308;2022-11-20T11:34:33;67.95;;;24.52;;
41480;SDS011;27217;51.220;5.308;2022-11-20T11:37:00;61.00;;;22.88;;
41480;SDS011;27217;51.220;5.308;2022-11-20T11:39:28;67.70;;;25.05;;
41480;SDS011;27217;51.220;5.308;2022-11-20T11:41:57;68.03;;;23.52;;
41480;SDS011;27217;51.220;5.308;2022-11-20T11:44:32;61.97;;;22.55;;
41480;SDS011;27217;51.220;5.308;2022-11-20T11:49:47;59.92;;;22.92;;
41480;SDS011;27217;51.220;5.308;2022-11-20T11:52:14;63.38;;;23.70;;
41480;SDS011;27217;51.220;5.308;2022-11-20T12:00:29;70.53;;;26.00;;
41480;SDS011;27217;51.220;5.308;2022-11-20T12:05:46;58.60;;;23.30;;
41480;SDS011;27217;51.220;5.308;2022-11-20T12:08:21;67.30;;;24.13;;
41480;SDS011;27217;51.220;5.308;2022-11-20T12:16:19;63.95;;;23.13;;
41480;SDS011;27217;51.220;5.308;2022-11-20T12:18:49;63.10;;;23.95;;
41480;SDS011;27217;51.220;5.308;2022-11-20T12:21:20;64.75;;;23.60;;
41480;SDS011;27217;51.220;5.308;2022-11-20T12:29:23;64.72;;;23.70;;
41480;SDS011;27217;51.220;5.308;2022-11-20T12:37:45;66.97;;;23.48;;
41480;SDS011;27217;51.220;5.308;2022-11-20T12:40:48;66.82;;;22.38;;
41480;SDS011;27217;51.220;5.308;2022-11-20T12:43:21;64.93;;;23.33;;
41480;SDS011;27217;51.220;5.308;2022-11-20T12:46:26;63.15;;;22.73;;
41480;SDS011;27217;51.220;5.308;2022-11-20T12:49:10;64.55;;;23.27;;
41480;SDS011;27217;51.220;5.308;2022-11-20T12:59:47;55.60;;;20.70;;
41480;SDS011;27217;51.220;5.308;2022-11-20T13:07:37;45.90;;;18.20;;
41480;SDS011;27217;51.220;5.308;2022-11-20T13:10:04;53.03;;;19.77;;
41480;SDS011;27217;51.220;5.308;2022-11-20T13:12:45;45.00;;;17.88;;
41480;SDS011;27217;51.220;5.308;2022-11-20T13:17:59;45.28;;;17.05;;
41480;SDS011;27217;51.220;5.308;2022-11-20T13:20:27;55.05;;;19.92;;
41480;SDS011;27217;51.220;5.308;2022-11-20T13:22:56;46.08;;;16.60;;
41480;SDS011;27217;51.220;5.308;2022-11-20T13:25:26;49.33;;;17.63;;
41480;SDS011;27217;51.220;5.308;2022-11-20T13:27:58;51.78;;;19.55;;
41480;SDS011;27217;51.220;5.308;2022-11-20T13:30:27;44.83;;;18.52;;
41480;SDS011;27217;51.220;5.308;2022-11-20T13:32:54;54.55;;;19.23;;
41480;SDS011;27217;51.220;5.308;2022-11-20T13:35:30;51.10;;;18.23;;
41480;SDS011;27217;51.220;5.308;2022-11-20T13:38:11;43.53;;;17.73;;
41480;SDS011;27217;51.220;5.308;2022-11-20T13:40:49;47.75;;;17.48;;
41480;SDS011;27217;51.220;5.308;2022-11-20T13:43:19;43.83;;;15.88;;
41480;SDS011;27217;51.220;5.308;2022-11-20T13:46:07;43.75;;;16.88;;
41480;SDS011;27217;51.220;5.308;2022-11-20T13:48:41;39.05;;;16.90;;
41480;SDS011;27217;51.220;5.308;2022-11-20T13:51:28;45.78;;;16.67;;
41480;SDS011;27217;51.220;5.308;2022-11-20T13:59:23;39.20;;;13.07;;
41480;SDS011;27217;51.220;5.308;2022-11-20T14:02:14;27.50;;;10.82;;
41480;SDS011;27217;51.220;5.308;2022-11-20T14:04:52;23.60;;;10.02;;
41480;SDS011;27217;51.220;5.308;2022-11-20T14:07:20;30.25;;;11.43;;
41480;SDS011;27217;51.220;5.308;2022-11-20T14:09:56;29.90;;;10.77;;
41480;SDS011;27217;51.220;5.308;2022-11-20T14:12:27;38.97;;;11.50;;
41480;SDS011;27217;51.220;5.308;2022-11-20T14:14:55;38.20;;;10.48;;
41480;SDS011;27217;51.220;5.308;2022-11-20T14:17:22;25.85;;;8.48;;
41480;SDS011;27217;51.220;5.308;2022-11-20T14:20:03;21.08;;;7.68;;
41480;SDS011;27217;51.220;5.308;2022-11-20T14:22:31;24.30;;;7.90;;
41480;SDS011;27217;51.220;5.308;2022-11-20T14:25:01;16.35;;;5.95;;
41480;SDS011;27217;51.220;5.308;2022-11-20T14:27:27;21.25;;;6.55;;
41480;SDS011;27217;51.220;5.308;2022-11-20T14:29:53;14.80;;;5.38;;
41480;SDS011;27217;51.220;5.308;2022-11-20T14:32:20;14.80;;;5.35;;
41480;SDS011;27217;51.220;5.308;2022-11-20T14:34:51;14.27;;;4.60;;
41480;SDS011;27217;51.220;5.308;2022-11-20T14:37:18;19.95;;;4.70;;
41480;SDS011;27217;51.220;5.308;2022-11-20T14:39:49;11.98;;;4.10;;
41480;SDS011;27217;51.220;5.308;2022-11-20T14:44:49;11.63;;;3.63;;
41480;SDS011;27217;51.220;5.308;2022-11-20T14:47:27;5.72;;;2.97;;
41480;SDS011;27217;51.220;5.308;2022-11-20T14:49:56;10.43;;;3.05;;
41480;SDS011;27217;51.220;5.308;2022-11-20T14:52:24;12.85;;;3.45;;
41480;SDS011;27217;51.220;5.308;2022-11-20T14:54:52;7.25;;;2.88;;
41480;SDS011;27217;51.220;5.308;2022-11-20T14:57:26;6.57;;;2.83;;
41480;SDS011;27217;51.220;5.308;2022-11-20T15:02:50;9.27;;;2.60;;
41480;SDS011;27217;51.220;5.308;2022-11-20T15:05:18;6.30;;;2.85;;
41480;SDS011;27217;51.220;5.308;2022-11-20T15:07:50;8.43;;;2.53;;
41480;SDS011;27217;51.220;5.308;2022-11-20T15:10:33;11.18;;;2.92;;
41480;SDS011;27217;51.220;5.308;2022-11-20T15:13:00;11.65;;;2.80;;
41480;SDS011;27217;51.220;5.308;2022-11-20T15:18:15;8.93;;;2.58;;
41480;SDS011;27217;51.220;5.308;2022-11-20T15:20:43;8.73;;;2.72;;
41480;SDS011;27217;51.220;5.308;2022-11-20T15:23:11;8.77;;;2.72;;
41480;SDS011;27217;51.220;5.308;2022-11-20T15:25:39;6.53;;;2.95;;
41480;SDS011;27217;51.220;5.308;2022-11-20T15:28:39;6.85;;;2.55;;
41480;SDS011;27217;51.220;5.308;2022-11-20T15:31:00;7.93;;;2.95;;
41480;SDS011;27217;51.220;5.308;2022-11-20T15:33:28;7.97;;;3.63;;
41480;SDS011;27217;51.220;5.308;2022-11-20T15:35:54;6.63;;;2.47;;
41480;SDS011;27217;51.220;5.308;2022-11-20T15:38:20;5.07;;;2.67;;
41480;SDS011;27217;51.220;5.308;2022-11-20T15:40:46;6.07;;;2.70;;
41480;SDS011;27217;51.220;5.308;2022-11-20T15:43:12;4.70;;;2.55;;
41480;SDS011;27217;51.220;5.308;2022-11-20T15:45:41;6.55;;;2.90;;
41480;SDS011;27217;51.220;5.308;2022-11-20T15:48:16;10.02;;;3.38;;
41480;SDS011;27217;51.220;5.308;2022-11-20T15:53:16;9.75;;;3.38;;
41480;SDS011;27217;51.220;5.308;2022-11-20T15:55:41;5.50;;;3.03;;
41480;SDS011;27217;51.220;5.308;2022-11-20T15:58:07;5.65;;;2.95;;
41480;SDS011;27217;51.220;5.308;2022-11-20T16:00:33;6.30;;;3.38;;
41480;SDS011;27217;51.220;5.308;2022-11-20T16:03:00;11.70;;;3.83;;
41480;SDS011;27217;51.220;5.308;2022-11-20T16:05:28;8.60;;;3.17;;
41480;SDS011;27217;51.220;5.308;2022-11-20T16:07:55;8.10;;;3.55;;
41480;SDS011;27217;51.220;5.308;2022-11-20T16:10:22;4.85;;;3.20;;
41480;SDS011;27217;51.220;5.308;2022-11-20T16:12:48;6.07;;;3.22;;
41480;SDS011;27217;51.220;5.308;2022-11-20T16:15:33;0.00;;;0.00;;
41480;SDS011;27217;51.220;5.308;2022-11-20T16:18:12;0.00;;;0.00;;